sensor_id;sensor_type;location;lat;lon;timestamp;P1;durP1;ratioP1;P2;durP2;ratioP2
18425;SDS011;9340;48.756;9.226;2023-06-22T00:00:45;11.40;;;10.50;;
18425;SDS011;9340;48.756;9.226;2023-06-22T00:03:12;11.38;;;10.38;;
18425;SDS011;9340;48.756;9.226;2023-06-22T00:05:40;12.68;;;11.68;;
18425;SDS011;9340;48.756;9.226;2023-06-22T00:08:06;11.38;;;10.43;;
18425;SDS011;9340;48.756;9.226;2023-06-22T00:10:33;13.73;;;12.60;;
18425;SDS011;9340;48.756;9.226;2023-06-22T00:13:00;13.05;;;11.95;;
18425;SDS011;9340;48.756;9.226;2023-06-22T00:15:27;13.93;;;12.73;;
18425;SDS011;9340;48.756;9.226;2023-06-22T00:17:53;12.75;;;11.82;;
18425;SDS011;9340;48.756;9.226;2023-06-22T00:20:22;11.98;;;11.05;;
18425;SDS011;9340;48.756;9.226;2023-06-22T00:22:54;12.02;;;11.02;;
18425;SDS011;9340;48.756;9.226;2023-06-22T00:25:21;13.32;;;12.15;;
18425;SDS011;9340;48.756;9.226;2023-06-22T00:27:47;13.05;;;11.85;;
18425;SDS011;9340;48.756;9.226;2023-06-22T00:30:15;13.05;;;11.82;;
18425;SDS011;9340;48.756;9.226;2023-06-22T00:32:42;12.35;;;11.25;;
18425;SDS011;9340;48.756;9.226;2023-06-22T00:35:09;13.23;;;12.18;;
18425;SDS011;9340;48.756;9.226;2023-06-22T00:37:35;12.48;;;11.43;;
18425;SDS011;9340;48.756;9.226;2023-06-22T00:40:05;11.85;;;10.95;;
18425;SDS011;9340;48.756;9.226;2023-06-22T00:42:33;12.07;;;11.15;;
18425;SDS011;9340;48.756;9.226;2023-06-22T00:45:00;11.75;;;10.90;;
18425;SDS011;9340;48.756;9.226;2023-06-22T00:47:27;10.55;;;9.75;;
18425;SDS011;9340;48.756;9.226;2023-06-22T00:49:53;12.43;;;11.32;;
18425;SDS011;9340;48.756;9.226;2023-06-22T00:52:20;11.48;;;10.32;;
18425;SDS011;9340;48.756;9.226;2023-06-22T00:54:52;12.52;;;11.52;;
18425;SDS011;9340;48.756;9.226;2023-06-22T00:57:21;11.80;;;10.23;;
18425;SDS011;9340;48.756;9.226;2023-06-22T00:59:53;12.13;;;11.13;;
18425;SDS011;9340;48.756;9.226;2023-06-22T01:02:20;11.38;;;10.38;;
18425;SDS011;9340;48.756;9.226;2023-06-22T01:04:47;12.15;;;11.15;;
18425;SDS011;9340;48.756;9.226;2023-06-22T01:07:17;13.23;;;12.02;;
18425;SDS011;9340;48.756;9.226;2023-06-22T01:09:51;12.20;;;11.15;;
18425;SDS011;9340;48.756;9.226;2023-06-22T01:12:25;13.70;;;12.63;;
18425;SDS011;9340;48.756;9.226;2023-06-22T01:14:57;11.98;;;10.98;;
18425;SDS011;9340;48.756;9.226;2023-06-22T01:17:30;11.90;;;10.90;;
18425;SDS011;9340;48.756;9.226;2023-06-22T01:19:59;12.23;;;11.07;;
18425;SDS011;9340;48.756;9.226;2023-06-22T01:22:30;13.07;;;11.93;;
18425;SDS011;9340;48.756;9.226;2023-06-22T01:25:09;10.68;;;9.68;;
18425;SDS011;9340;48.756;9.226;2023-06-22T01:27:45;12.88;;;11.75;;
18425;SDS011;9340;48.756;9.226;2023-06-22T01:30:20;13.80;;;12.52;;
18425;SDS011;9340;48.756;9.226;2023-06-22T01:32:50;13.68;;;12.60;;
18425;SDS011;9340;48.756;9.226;2023-06-22T01:35:18;13.60;;;12.40;;
18425;SDS011;9340;48.756;9.226;2023-06-22T01:37:47;13.40;;;12.35;;
18425;SDS011;9340;48.756;9.226;2023-06-22T01:40:14;11.30;;;10.43;;
18425;SDS011;9340;48.756;9.226;2023-06-22T01:42:41;12.60;;;11.60;;
18425;SDS011;9340;48.756;9.226;2023-06-22T01:45:09;12.30;;;11.10;;
18425;SDS011;9340;48.756;9.226;2023-06-22T01:47:38;11.25;;;10.35;;
18425;SDS011;9340;48.756;9.226;2023-06-22T01:50:05;13.65;;;12.30;;
18425;SDS011;9340;48.756;9.226;2023-06-22T01:52:33;11.00;;;10.00;;
18425;SDS011;9340;48.756;9.226;2023-06-22T01:54:59;12.32;;;11.25;;
18425;SDS011;9340;48.756;9.226;2023-06-22T01:57:26;11.77;;;10.63;;
18425;SDS011;9340;48.756;9.226;2023-06-22T01:59:56;12.48;;;11.32;;
18425;SDS011;9340;48.756;9.226;2023-06-22T02:02:27;11.35;;;10.43;;
18425;SDS011;9340;48.756;9.226;2023-06-22T02:05:01;12.35;;;11.23;;
18425;SDS011;9340;48.756;9.226;2023-06-22T02:07:31;11.45;;;10.40;;
18425;SDS011;9340;48.756;9.226;2023-06-22T02:10:03;12.40;;;11.50;;
18425;SDS011;9340;48.756;9.226;2023-06-22T02:12:33;14.15;;;12.93;;
18425;SDS011;9340;48.756;9.226;2023-06-22T02:15:02;11.73;;;10.68;;
18425;SDS011;9340;48.756;9.226;2023-06-22T02:17:29;12.50;;;11.35;;
18425;SDS011;9340;48.756;9.226;2023-06-22T02:19:59;11.90;;;10.70;;
18425;SDS011;9340;48.756;9.226;2023-06-22T02:22:29;13.60;;;12.40;;
18425;SDS011;9340;48.756;9.226;2023-06-22T02:24:56;11.63;;;10.80;;
18425;SDS011;9340;48.756;9.226;2023-06-22T02:27:23;11.20;;;10.10;;
18425;SDS011;9340;48.756;9.226;2023-06-22T02:29:50;11.52;;;10.40;;
18425;SDS011;9340;48.756;9.226;2023-06-22T02:32:16;11.43;;;10.40;;
18425;SDS011;9340;48.756;9.226;2023-06-22T02:34:43;12.98;;;11.88;;
18425;SDS011;9340;48.756;9.226;2023-06-22T02:37:13;13.00;;;11.98;;
18425;SDS011;9340;48.756;9.226;2023-06-22T02:39:40;12.73;;;11.73;;
18425;SDS011;9340;48.756;9.226;2023-06-22T02:42:07;12.63;;;11.55;;
18425;SDS011;9340;48.756;9.226;2023-06-22T02:44:35;11.98;;;10.98;;
18425;SDS011;9340;48.756;9.226;2023-06-22T02:47:02;11.68;;;10.68;;
18425;SDS011;9340;48.756;9.226;2023-06-22T02:49:29;14.05;;;12.75;;
18425;SDS011;9340;48.756;9.226;2023-06-22T02:51:57;13.98;;;12.90;;
18425;SDS011;9340;48.756;9.226;2023-06-22T02:54:25;13.70;;;12.25;;
18425;SDS011;9340;48.756;9.226;2023-06-22T02:56:52;14.65;;;13.38;;
18425;SDS011;9340;48.756;9.226;2023-06-22T02:59:18;12.43;;;11.43;;
18425;SDS011;9340;48.756;9.226;2023-06-22T03:01:48;12.85;;;11.75;;
18425;SDS011;9340;48.756;9.226;2023-06-22T03:04:15;12.90;;;11.75;;
18425;SDS011;9340;48.756;9.226;2023-06-22T03:06:42;14.15;;;12.88;;
18425;SDS011;9340;48.756;9.226;2023-06-22T03:09:08;13.50;;;12.45;;
18425;SDS011;9340;48.756;9.226;2023-06-22T03:11:37;14.90;;;13.70;;
18425;SDS011;9340;48.756;9.226;2023-06-22T03:14:03;14.40;;;13.20;;
18425;SDS011;9340;48.756;9.226;2023-06-22T03:16:30;14.35;;;13.25;;
18425;SDS011;9340;48.756;9.226;2023-06-22T03:18:58;14.88;;;13.68;;
18425;SDS011;9340;48.756;9.226;2023-06-22T03:21:26;14.73;;;13.50;;
18425;SDS011;9340;48.756;9.226;2023-06-22T03:23:54;12.50;;;11.27;;
18425;SDS011;9340;48.756;9.226;2023-06-22T03:26:21;16.10;;;14.73;;
18425;SDS011;9340;48.756;9.226;2023-06-22T03:28:52;14.70;;;13.38;;
18425;SDS011;9340;48.756;9.226;2023-06-22T03:31:19;15.00;;;13.68;;
18425;SDS011;9340;48.756;9.226;2023-06-22T03:33:46;12.88;;;11.75;;
18425;SDS011;9340;48.756;9.226;2023-06-22T03:36:13;16.35;;;14.32;;
18425;SDS011;9340;48.756;9.226;2023-06-22T03:38:41;14.88;;;13.68;;
18425;SDS011;9340;48.756;9.226;2023-06-22T03:41:08;16.27;;;14.98;;
18425;SDS011;9340;48.756;9.226;2023-06-22T03:43:34;13.02;;;11.93;;
18425;SDS011;9340;48.756;9.226;2023-06-22T03:46:02;13.48;;;12.35;;
18425;SDS011;9340;48.756;9.226;2023-06-22T03:48:29;15.43;;;14.15;;
18425;SDS011;9340;48.756;9.226;2023-06-22T03:50:56;14.10;;;13.07;;
18425;SDS011;9340;48.756;9.226;2023-06-22T03:53:22;13.20;;;12.10;;
18425;SDS011;9340;48.756;9.226;2023-06-22T03:55:49;13.93;;;12.50;;
18425;SDS011;9340;48.756;9.226;2023-06-22T03:58:17;13.70;;;12.60;;
18425;SDS011;9340;48.756;9.226;2023-06-22T04:00:44;14.10;;;12.75;;
18425;SDS011;9340;48.756;9.226;2023-06-22T04:03:13;14.75;;;13.43;;
18425;SDS011;9340;48.756;9.226;2023-06-22T04:05:40;13.70;;;12.50;;
18425;SDS011;9340;48.756;9.226;2023-06-22T04:08:07;13.32;;;12.25;;
18425;SDS011;9340;48.756;9.226;2023-06-22T04:10:34;12.85;;;11.85;;
18425;SDS011;9340;48.756;9.226;2023-06-22T04:13:01;12.77;;;11.88;;
18425;SDS011;9340;48.756;9.226;2023-06-22T04:15:28;13.20;;;12.18;;
18425;SDS011;9340;48.756;9.226;2023-06-22T04:17:54;13.13;;;11.95;;
18425;SDS011;9340;48.756;9.226;2023-06-22T04:20:23;12.98;;;11.88;;
18425;SDS011;9340;48.756;9.226;2023-06-22T04:22:51;12.75;;;11.70;;
18425;SDS011;9340;48.756;9.226;2023-06-22T04:25:18;12.15;;;11.23;;
18425;SDS011;9340;48.756;9.226;2023-06-22T04:27:45;12.77;;;11.73;;
18425;SDS011;9340;48.756;9.226;2023-06-22T04:30:12;12.23;;;11.27;;
18425;SDS011;9340;48.756;9.226;2023-06-22T04:32:40;12.02;;;11.02;;
18425;SDS011;9340;48.756;9.226;2023-06-22T04:35:07;12.80;;;10.77;;
18425;SDS011;9340;48.756;9.226;2023-06-22T04:37:35;12.15;;;11.05;;
18425;SDS011;9340;48.756;9.226;2023-06-22T04:40:02;11.77;;;10.60;;
18425;SDS011;9340;48.756;9.226;2023-06-22T04:42:33;12.05;;;11.07;;
18425;SDS011;9340;48.756;9.226;2023-06-22T04:45:00;11.68;;;10.63;;
18425;SDS011;9340;48.756;9.226;2023-06-22T04:47:27;10.45;;;9.50;;
18425;SDS011;9340;48.756;9.226;2023-06-22T04:49:54;10.63;;;9.82;;
18425;SDS011;9340;48.756;9.226;2023-06-22T04:52:20;10.77;;;9.73;;
18425;SDS011;9340;48.756;9.226;2023-06-22T04:54:48;10.65;;;9.75;;
18425;SDS011;9340;48.756;9.226;2023-06-22T04:57:20;10.95;;;10.05;;
18425;SDS011;9340;48.756;9.226;2023-06-22T04:59:57;10.98;;;10.07;;
18425;SDS011;9340;48.756;9.226;2023-06-22T05:02:26;9.55;;;8.80;;
18425;SDS011;9340;48.756;9.226;2023-06-22T05:04:57;11.38;;;10.38;;
18425;SDS011;9340;48.756;9.226;2023-06-22T05:07:24;11.13;;;10.32;;
18425;SDS011;9340;48.756;9.226;2023-06-22T05:09:53;10.38;;;9.55;;
18425;SDS011;9340;48.756;9.226;2023-06-22T05:12:19;10.70;;;9.80;;
18425;SDS011;9340;48.756;9.226;2023-06-22T05:14:46;11.23;;;10.32;;
18425;SDS011;9340;48.756;9.226;2023-06-22T05:17:12;10.30;;;9.30;;
18425;SDS011;9340;48.756;9.226;2023-06-22T05:19:40;10.48;;;9.57;;
18425;SDS011;9340;48.756;9.226;2023-06-22T05:22:10;10.10;;;9.07;;
18425;SDS011;9340;48.756;9.226;2023-06-22T05:24:37;10.05;;;8.68;;
18425;SDS011;9340;48.756;9.226;2023-06-22T05:27:06;9.60;;;8.80;;
18425;SDS011;9340;48.756;9.226;2023-06-22T05:29:33;9.45;;;8.75;;
18425;SDS011;9340;48.756;9.226;2023-06-22T05:32:00;9.57;;;8.65;;
18425;SDS011;9340;48.756;9.226;2023-06-22T05:34:27;10.07;;;9.10;;
18425;SDS011;9340;48.756;9.226;2023-06-22T05:36:53;8.57;;;7.78;;
18425;SDS011;9340;48.756;9.226;2023-06-22T05:39:20;9.32;;;8.45;;
18425;SDS011;9340;48.756;9.226;2023-06-22T05:41:46;8.77;;;8.07;;
18425;SDS011;9340;48.756;9.226;2023-06-22T05:44:14;8.60;;;7.65;;
18425;SDS011;9340;48.756;9.226;2023-06-22T05:46:42;9.32;;;8.50;;
18425;SDS011;9340;48.756;9.226;2023-06-22T05:49:11;10.88;;;8.32;;
18425;SDS011;9340;48.756;9.226;2023-06-22T05:51:38;9.15;;;8.25;;
18425;SDS011;9340;48.756;9.226;2023-06-22T05:54:05;9.38;;;8.15;;
18425;SDS011;9340;48.756;9.226;2023-06-22T05:56:33;9.43;;;8.60;;
18425;SDS011;9340;48.756;9.226;2023-06-22T05:58:59;8.32;;;7.68;;
18425;SDS011;9340;48.756;9.226;2023-06-22T06:01:27;9.13;;;8.20;;
18425;SDS011;9340;48.756;9.226;2023-06-22T06:03:59;8.55;;;7.45;;
18425;SDS011;9340;48.756;9.226;2023-06-22T06:06:26;8.95;;;8.05;;
18425;SDS011;9340;48.756;9.226;2023-06-22T06:08:53;8.90;;;8.00;;
18425;SDS011;9340;48.756;9.226;2023-06-22T06:11:20;10.38;;;8.30;;
18425;SDS011;9340;48.756;9.226;2023-06-22T06:13:47;8.52;;;7.72;;
18425;SDS011;9340;48.756;9.226;2023-06-22T06:16:13;8.60;;;7.80;;
18425;SDS011;9340;48.756;9.226;2023-06-22T06:18:41;8.40;;;7.57;;
18425;SDS011;9340;48.756;9.226;2023-06-22T06:21:08;8.30;;;7.45;;
18425;SDS011;9340;48.756;9.226;2023-06-22T06:23:35;8.55;;;7.78;;
18425;SDS011;9340;48.756;9.226;2023-06-22T06:26:01;8.20;;;7.47;;
18425;SDS011;9340;48.756;9.226;2023-06-22T06:28:32;7.50;;;6.90;;
18425;SDS011;9340;48.756;9.226;2023-06-22T06:30:59;8.85;;;7.30;;
18425;SDS011;9340;48.756;9.226;2023-06-22T06:33:25;8.00;;;7.28;;
18425;SDS011;9340;48.756;9.226;2023-06-22T06:35:53;7.85;;;7.20;;
18425;SDS011;9340;48.756;9.226;2023-06-22T06:38:21;7.63;;;6.93;;
18425;SDS011;9340;48.756;9.226;2023-06-22T06:40:48;7.00;;;6.40;;
18425;SDS011;9340;48.756;9.226;2023-06-22T06:43:15;7.38;;;6.70;;
18425;SDS011;9340;48.756;9.226;2023-06-22T06:45:41;7.53;;;6.85;;
18425;SDS011;9340;48.756;9.226;2023-06-22T06:48:08;7.97;;;7.32;;
18425;SDS011;9340;48.756;9.226;2023-06-22T06:50:35;7.78;;;7.18;;
18425;SDS011;9340;48.756;9.226;2023-06-22T06:53:03;7.63;;;7.00;;
18425;SDS011;9340;48.756;9.226;2023-06-22T06:55:30;7.68;;;6.97;;
18425;SDS011;9340;48.756;9.226;2023-06-22T06:57:58;7.60;;;6.90;;
18425;SDS011;9340;48.756;9.226;2023-06-22T07:00:25;8.63;;;7.82;;
18425;SDS011;9340;48.756;9.226;2023-06-22T07:02:52;7.68;;;6.97;;
18425;SDS011;9340;48.756;9.226;2023-06-22T07:05:19;8.30;;;7.47;;
18425;SDS011;9340;48.756;9.226;2023-06-22T07:07:46;8.25;;;7.45;;
18425;SDS011;9340;48.756;9.226;2023-06-22T07:10:15;7.30;;;6.57;;
18425;SDS011;9340;48.756;9.226;2023-06-22T07:12:42;7.80;;;7.10;;
18425;SDS011;9340;48.756;9.226;2023-06-22T07:15:09;8.02;;;7.15;;
18425;SDS011;9340;48.756;9.226;2023-06-22T07:17:37;8.18;;;7.38;;
18425;SDS011;9340;48.756;9.226;2023-06-22T07:20:06;9.73;;;7.68;;
18425;SDS011;9340;48.756;9.226;2023-06-22T07:22:35;7.72;;;7.00;;
18425;SDS011;9340;48.756;9.226;2023-06-22T07:25:01;8.07;;;7.32;;
18425;SDS011;9340;48.756;9.226;2023-06-22T07:27:35;8.05;;;7.25;;
18425;SDS011;9340;48.756;9.226;2023-06-22T07:30:04;8.07;;;7.30;;
18425;SDS011;9340;48.756;9.226;2023-06-22T07:32:31;7.53;;;6.82;;
18425;SDS011;9340;48.756;9.226;2023-06-22T07:34:58;8.15;;;7.35;;
18425;SDS011;9340;48.756;9.226;2023-06-22T07:37:25;9.05;;;7.15;;
18425;SDS011;9340;48.756;9.226;2023-06-22T07:39:52;8.27;;;7.47;;
18425;SDS011;9340;48.756;9.226;2023-06-22T07:42:23;9.77;;;7.60;;
18425;SDS011;9340;48.756;9.226;2023-06-22T07:44:51;7.35;;;6.57;;
18425;SDS011;9340;48.756;9.226;2023-06-22T07:47:18;7.95;;;7.15;;
18425;SDS011;9340;48.756;9.226;2023-06-22T07:49:45;8.52;;;7.05;;
18425;SDS011;9340;48.756;9.226;2023-06-22T07:52:12;8.93;;;7.30;;
18425;SDS011;9340;48.756;9.226;2023-06-22T07:54:38;7.85;;;7.15;;
18425;SDS011;9340;48.756;9.226;2023-06-22T07:57:05;9.25;;;6.68;;
18425;SDS011;9340;48.756;9.226;2023-06-22T07:59:32;7.88;;;7.00;;
18425;SDS011;9340;48.756;9.226;2023-06-22T08:02:00;7.43;;;6.35;;
18425;SDS011;9340;48.756;9.226;2023-06-22T08:04:28;7.20;;;6.00;;
18425;SDS011;9340;48.756;9.226;2023-06-22T08:06:56;6.05;;;5.45;;
18425;SDS011;9340;48.756;9.226;2023-06-22T08:09:22;6.63;;;6.03;;
18425;SDS011;9340;48.756;9.226;2023-06-22T08:11:49;9.82;;;6.80;;
18425;SDS011;9340;48.756;9.226;2023-06-22T08:14:16;10.55;;;6.65;;
18425;SDS011;9340;48.756;9.226;2023-06-22T08:16:42;7.57;;;6.00;;
18425;SDS011;9340;48.756;9.226;2023-06-22T08:19:10;8.55;;;5.97;;
18425;SDS011;9340;48.756;9.226;2023-06-22T08:21:37;8.65;;;6.35;;
18425;SDS011;9340;48.756;9.226;2023-06-22T08:24:04;7.50;;;6.00;;
18425;SDS011;9340;48.756;9.226;2023-06-22T08:26:32;8.20;;;6.30;;
18425;SDS011;9340;48.756;9.226;2023-06-22T08:29:01;10.27;;;6.28;;
18425;SDS011;9340;48.756;9.226;2023-06-22T08:31:28;8.40;;;6.80;;
18425;SDS011;9340;48.756;9.226;2023-06-22T08:33:55;10.02;;;6.35;;
18425;SDS011;9340;48.756;9.226;2023-06-22T08:36:23;7.60;;;6.15;;
18425;SDS011;9340;48.756;9.226;2023-06-22T08:38:50;7.45;;;6.65;;
18425;SDS011;9340;48.756;9.226;2023-06-22T08:41:18;7.28;;;5.95;;
18425;SDS011;9340;48.756;9.226;2023-06-22T08:43:45;9.63;;;6.90;;
18425;SDS011;9340;48.756;9.226;2023-06-22T08:46:12;7.53;;;6.13;;
18425;SDS011;9340;48.756;9.226;2023-06-22T08:48:39;8.45;;;6.10;;
18425;SDS011;9340;48.756;9.226;2023-06-22T08:51:05;8.13;;;7.15;;
18425;SDS011;9340;48.756;9.226;2023-06-22T08:53:33;8.75;;;6.60;;
18425;SDS011;9340;48.756;9.226;2023-06-22T08:56:01;7.80;;;5.80;;
18425;SDS011;9340;48.756;9.226;2023-06-22T08:58:28;6.95;;;6.25;;
18425;SDS011;9340;48.756;9.226;2023-06-22T09:00:55;7.72;;;6.43;;
18425;SDS011;9340;48.756;9.226;2023-06-22T09:03:26;7.10;;;6.35;;
18425;SDS011;9340;48.756;9.226;2023-06-22T09:05:52;6.57;;;5.97;;
18425;SDS011;9340;48.756;9.226;2023-06-22T09:08:19;9.68;;;6.72;;
18425;SDS011;9340;48.756;9.226;2023-06-22T09:10:47;10.63;;;6.68;;
18425;SDS011;9340;48.756;9.226;2023-06-22T09:13:14;9.73;;;6.97;;
18425;SDS011;9340;48.756;9.226;2023-06-22T09:15:40;10.20;;;6.35;;
18425;SDS011;9340;48.756;9.226;2023-06-22T09:18:09;9.18;;;6.72;;
18425;SDS011;9340;48.756;9.226;2023-06-22T09:20:36;10.88;;;6.97;;
18425;SDS011;9340;48.756;9.226;2023-06-22T09:23:03;11.30;;;6.78;;
18425;SDS011;9340;48.756;9.226;2023-06-22T09:25:29;7.57;;;6.88;;
18425;SDS011;9340;48.756;9.226;2023-06-22T09:27:57;11.02;;;7.32;;
18425;SDS011;9340;48.756;9.226;2023-06-22T09:30:24;9.25;;;7.53;;
18425;SDS011;9340;48.756;9.226;2023-06-22T09:32:51;9.18;;;7.68;;
18425;SDS011;9340;48.756;9.226;2023-06-22T09:35:17;8.93;;;7.05;;
18425;SDS011;9340;48.756;9.226;2023-06-22T09:37:45;9.13;;;7.03;;
18425;SDS011;9340;48.756;9.226;2023-06-22T09:40:12;8.70;;;6.82;;
18425;SDS011;9340;48.756;9.226;2023-06-22T09:42:41;9.38;;;6.45;;
18425;SDS011;9340;48.756;9.226;2023-06-22T09:45:10;8.43;;;7.63;;
18425;SDS011;9340;48.756;9.226;2023-06-22T09:47:37;13.82;;;8.02;;
18425;SDS011;9340;48.756;9.226;2023-06-22T09:50:04;8.13;;;6.85;;
18425;SDS011;9340;48.756;9.226;2023-06-22T09:52:31;11.27;;;7.20;;
18425;SDS011;9340;48.756;9.226;2023-06-22T09:54:57;7.57;;;6.97;;
18425;SDS011;9340;48.756;9.226;2023-06-22T09:57:24;7.40;;;6.60;;
18425;SDS011;9340;48.756;9.226;2023-06-22T09:59:51;9.60;;;7.45;;
18425;SDS011;9340;48.756;9.226;2023-06-22T10:02:19;10.73;;;7.47;;
18425;SDS011;9340;48.756;9.226;2023-06-22T10:04:47;9.02;;;7.72;;
18425;SDS011;9340;48.756;9.226;2023-06-22T10:07:13;10.45;;;7.15;;
18425;SDS011;9340;48.756;9.226;2023-06-22T10:09:40;11.02;;;7.65;;
18425;SDS011;9340;48.756;9.226;2023-06-22T10:12:07;17.60;;;7.68;;
18425;SDS011;9340;48.756;9.226;2023-06-22T10:14:34;9.13;;;7.18;;
18425;SDS011;9340;48.756;9.226;2023-06-22T10:17:02;7.97;;;6.90;;
18425;SDS011;9340;48.756;9.226;2023-06-22T10:19:30;11.93;;;8.10;;
18425;SDS011;9340;48.756;9.226;2023-06-22T10:21:56;10.10;;;7.07;;
18425;SDS011;9340;48.756;9.226;2023-06-22T10:24:23;12.50;;;7.47;;
18425;SDS011;9340;48.756;9.226;2023-06-22T10:26:50;9.20;;;7.38;;
18425;SDS011;9340;48.756;9.226;2023-06-22T10:29:16;9.48;;;7.35;;
18425;SDS011;9340;48.756;9.226;2023-06-22T10:31:43;8.55;;;7.60;;
18425;SDS011;9340;48.756;9.226;2023-06-22T10:34:10;10.32;;;7.85;;
18425;SDS011;9340;48.756;9.226;2023-06-22T10:36:38;11.80;;;7.78;;
18425;SDS011;9340;48.756;9.226;2023-06-22T10:39:04;11.50;;;8.20;;
18425;SDS011;9340;48.756;9.226;2023-06-22T10:41:31;11.45;;;7.30;;
18425;SDS011;9340;48.756;9.226;2023-06-22T10:43:58;10.45;;;8.27;;
18425;SDS011;9340;48.756;9.226;2023-06-22T10:46:25;9.18;;;7.57;;
18425;SDS011;9340;48.756;9.226;2023-06-22T10:48:52;9.70;;;7.50;;
18425;SDS011;9340;48.756;9.226;2023-06-22T10:51:22;9.20;;;7.75;;
18425;SDS011;9340;48.756;9.226;2023-06-22T10:53:50;14.25;;;8.07;;
18425;SDS011;9340;48.756;9.226;2023-06-22T10:56:17;9.20;;;7.93;;
18425;SDS011;9340;48.756;9.226;2023-06-22T10:58:44;10.15;;;6.97;;
18425;SDS011;9340;48.756;9.226;2023-06-22T11:01:12;12.60;;;7.95;;
18425;SDS011;9340;48.756;9.226;2023-06-22T11:03:39;9.65;;;8.05;;
18425;SDS011;9340;48.756;9.226;2023-06-22T11:06:05;9.77;;;6.70;;
18425;SDS011;9340;48.756;9.226;2023-06-22T11:08:32;9.60;;;7.68;;
18425;SDS011;9340;48.756;9.226;2023-06-22T11:11:00;17.95;;;9.05;;
18425;SDS011;9340;48.756;9.226;2023-06-22T11:13:27;11.02;;;7.80;;
18425;SDS011;9340;48.756;9.226;2023-06-22T11:15:53;11.38;;;7.72;;
18425;SDS011;9340;48.756;9.226;2023-06-22T11:18:20;13.23;;;7.68;;
18425;SDS011;9340;48.756;9.226;2023-06-22T11:20:48;12.13;;;8.00;;
18425;SDS011;9340;48.756;9.226;2023-06-22T11:23:14;10.38;;;8.27;;
18425;SDS011;9340;48.756;9.226;2023-06-22T11:25:41;8.75;;;7.40;;
18425;SDS011;9340;48.756;9.226;2023-06-22T11:28:09;10.95;;;7.85;;
18425;SDS011;9340;48.756;9.226;2023-06-22T11:30:36;11.07;;;6.88;;
18425;SDS011;9340;48.756;9.226;2023-06-22T11:33:02;8.80;;;7.90;;
18425;SDS011;9340;48.756;9.226;2023-06-22T11:35:29;11.80;;;7.80;;
18425;SDS011;9340;48.756;9.226;2023-06-22T11:37:56;13.05;;;8.40;;
18425;SDS011;9340;48.756;9.226;2023-06-22T11:40:23;14.68;;;8.27;;
18425;SDS011;9340;48.756;9.226;2023-06-22T11:42:50;12.48;;;8.13;;
18425;SDS011;9340;48.756;9.226;2023-06-22T11:45:18;10.45;;;7.93;;
18425;SDS011;9340;48.756;9.226;2023-06-22T11:47:45;11.00;;;8.13;;
18425;SDS011;9340;48.756;9.226;2023-06-22T11:50:12;12.25;;;7.70;;
18425;SDS011;9340;48.756;9.226;2023-06-22T11:52:38;9.70;;;7.93;;
18425;SDS011;9340;48.756;9.226;2023-06-22T11:55:05;8.55;;;7.32;;
18425;SDS011;9340;48.756;9.226;2023-06-22T11:57:33;15.10;;;8.50;;
18425;SDS011;9340;48.756;9.226;2023-06-22T12:00:00;11.98;;;7.43;;
18425;SDS011;9340;48.756;9.226;2023-06-22T12:02:32;13.50;;;8.13;;
18425;SDS011;9340;48.756;9.226;2023-06-22T12:04:59;15.27;;;8.88;;
18425;SDS011;9340;48.756;9.226;2023-06-22T12:07:26;12.50;;;8.52;;
18425;SDS011;9340;48.756;9.226;2023-06-22T12:09:53;10.70;;;8.07;;
18425;SDS011;9340;48.756;9.226;2023-06-22T12:12:20;12.52;;;9.00;;
18425;SDS011;9340;48.756;9.226;2023-06-22T12:14:46;14.60;;;8.30;;
18425;SDS011;9340;48.756;9.226;2023-06-22T12:17:13;10.73;;;7.57;;
18425;SDS011;9340;48.756;9.226;2023-06-22T12:19:41;12.10;;;7.28;;
18425;SDS011;9340;48.756;9.226;2023-06-22T12:22:08;13.57;;;7.70;;
18425;SDS011;9340;48.756;9.226;2023-06-22T12:24:34;12.85;;;7.75;;
18425;SDS011;9340;48.756;9.226;2023-06-22T12:27:01;13.73;;;8.32;;
18425;SDS011;9340;48.756;9.226;2023-06-22T12:29:28;16.63;;;8.95;;
18425;SDS011;9340;48.756;9.226;2023-06-22T12:31:55;11.73;;;8.45;;
18425;SDS011;9340;48.756;9.226;2023-06-22T12:34:22;15.30;;;8.65;;
18425;SDS011;9340;48.756;9.226;2023-06-22T12:36:50;12.10;;;7.78;;
18425;SDS011;9340;48.756;9.226;2023-06-22T12:39:19;11.27;;;7.85;;
18425;SDS011;9340;48.756;9.226;2023-06-22T12:41:45;14.88;;;8.45;;
18425;SDS011;9340;48.756;9.226;2023-06-22T12:44:12;10.30;;;7.80;;
18425;SDS011;9340;48.756;9.226;2023-06-22T12:46:39;12.82;;;8.50;;
18425;SDS011;9340;48.756;9.226;2023-06-22T12:49:05;10.13;;;7.88;;
18425;SDS011;9340;48.756;9.226;2023-06-22T12:51:32;23.60;;;10.00;;
18425;SDS011;9340;48.756;9.226;2023-06-22T12:54:00;12.15;;;8.85;;
18425;SDS011;9340;48.756;9.226;2023-06-22T12:56:27;8.55;;;7.32;;
18425;SDS011;9340;48.756;9.226;2023-06-22T12:58:53;12.65;;;8.88;;
18425;SDS011;9340;48.756;9.226;2023-06-22T13:01:20;11.95;;;8.18;;
18425;SDS011;9340;48.756;9.226;2023-06-22T13:03:47;14.88;;;8.10;;
18425;SDS011;9340;48.756;9.226;2023-06-22T13:06:13;9.63;;;7.88;;
18425;SDS011;9340;48.756;9.226;2023-06-22T13:08:40;14.18;;;8.18;;
18425;SDS011;9340;48.756;9.226;2023-06-22T13:11:08;12.35;;;8.25;;
18425;SDS011;9340;48.756;9.226;2023-06-22T13:13:35;13.07;;;7.72;;
18425;SDS011;9340;48.756;9.226;2023-06-22T13:16:01;13.27;;;8.32;;
18425;SDS011;9340;48.756;9.226;2023-06-22T13:18:28;11.57;;;7.82;;
18425;SDS011;9340;48.756;9.226;2023-06-22T13:20:55;16.23;;;8.10;;
18425;SDS011;9340;48.756;9.226;2023-06-22T13:23:23;11.35;;;8.13;;
18425;SDS011;9340;48.756;9.226;2023-06-22T13:25:49;10.45;;;7.18;;
18425;SDS011;9340;48.756;9.226;2023-06-22T13:28:17;9.45;;;7.13;;
18425;SDS011;9340;48.756;9.226;2023-06-22T13:30:46;11.25;;;7.55;;
18425;SDS011;9340;48.756;9.226;2023-06-22T13:33:13;11.40;;;7.25;;
18425;SDS011;9340;48.756;9.226;2023-06-22T13:35:39;12.40;;;7.38;;
18425;SDS011;9340;48.756;9.226;2023-06-22T13:38:07;9.43;;;7.65;;
18425;SDS011;9340;48.756;9.226;2023-06-22T13:40:34;8.88;;;7.10;;
18425;SDS011;9340;48.756;9.226;2023-06-22T13:43:01;9.13;;;7.45;;
18425;SDS011;9340;48.756;9.226;2023-06-22T13:45:29;12.25;;;8.30;;
18425;SDS011;9340;48.756;9.226;2023-06-22T13:47:56;8.68;;;7.78;;
18425;SDS011;9340;48.756;9.226;2023-06-22T13:50:22;12.15;;;8.10;;
18425;SDS011;9340;48.756;9.226;2023-06-22T13:52:49;12.75;;;8.45;;
18425;SDS011;9340;48.756;9.226;2023-06-22T13:55:16;11.77;;;8.43;;
18425;SDS011;9340;48.756;9.226;2023-06-22T13:57:44;11.68;;;7.88;;
18425;SDS011;9340;48.756;9.226;2023-06-22T14:00:11;10.88;;;8.23;;
18425;SDS011;9340;48.756;9.226;2023-06-22T14:02:40;10.93;;;7.53;;
18425;SDS011;9340;48.756;9.226;2023-06-22T14:05:07;13.18;;;8.00;;
18425;SDS011;9340;48.756;9.226;2023-06-22T14:07:34;8.52;;;7.07;;
18425;SDS011;9340;48.756;9.226;2023-06-22T14:10:01;9.95;;;7.82;;
18425;SDS011;9340;48.756;9.226;2023-06-22T14:12:27;13.02;;;6.97;;
18425;SDS011;9340;48.756;9.226;2023-06-22T14:14:54;9.35;;;7.63;;
18425;SDS011;9340;48.756;9.226;2023-06-22T14:17:20;7.50;;;6.65;;
18425;SDS011;9340;48.756;9.226;2023-06-22T14:19:51;9.43;;;7.05;;
18425;SDS011;9340;48.756;9.226;2023-06-22T14:22:19;13.20;;;7.97;;
18425;SDS011;9340;48.756;9.226;2023-06-22T14:24:45;11.55;;;7.00;;
18425;SDS011;9340;48.756;9.226;2023-06-22T14:27:13;9.77;;;7.13;;
18425;SDS011;9340;48.756;9.226;2023-06-22T14:29:39;10.93;;;7.03;;
18425;SDS011;9340;48.756;9.226;2023-06-22T14:32:07;11.77;;;7.35;;
18425;SDS011;9340;48.756;9.226;2023-06-22T14:34:34;11.95;;;6.20;;
18425;SDS011;9340;48.756;9.226;2023-06-22T14:37:05;9.27;;;6.63;;
18425;SDS011;9340;48.756;9.226;2023-06-22T14:39:34;13.00;;;7.53;;
18425;SDS011;9340;48.756;9.226;2023-06-22T14:42:01;10.07;;;7.32;;
18425;SDS011;9340;48.756;9.226;2023-06-22T14:44:29;8.95;;;6.55;;
18425;SDS011;9340;48.756;9.226;2023-06-22T14:46:55;10.43;;;6.07;;
18425;SDS011;9340;48.756;9.226;2023-06-22T14:49:22;10.45;;;5.88;;